Time;durP1;ratioP1;P1;durP2;ratioP2;P2;SDS_P1;SDS_P2;PMS_P1;PMS_P2;Temp;Humidity;BMP_temperature;BMP_pressure;BME280_temperature;BME280_humidity;BME280_pressure;Samples;Min_cycle;Max_cycle;Signal;HPM_P1;HPM_P2
2022/02/01 00:02:03;;;;;;;4.50;4.00;;;6.10;82.80;;;;;;5043360;28;20036;-69
2022/02/01 00:04:55;;;;;;;5.22;3.95;;;6.10;82.30;;;;;;5050149;28;20029;-68
2022/02/01 00:07:33;;;;;;;4.82;3.78;;;6.10;82.70;;;;;;5050010;28;20013;-69
2022/02/01 00:12:50;;;;;;;4.13;3.70;;;6.10;82.80;;;;;;5040815;28;20028;-68
2022/02/01 00:33:17;;;;;;;4.03;3.63;;;6.30;81.20;;;;;;5041609;28;20020;-68
2022/02/01 00:34:18;;;;;;;4.20;3.53;;;6.40;79.90;;;;;;5039674;28;20260;-68
2022/02/01 00:36:50;;;;;;;3.50;3.08;;;6.40;79.90;;;;;;5026759;28;20356;-69
2022/02/01 00:39:17;;;;;;;3.53;3.08;;;6.50;79.20;;;;;;5044281;28;20047;-68
2022/02/01 00:41:50;;;;;;;3.40;3.10;;;6.50;79.00;;;;;;5039348;27;20086;-70
2022/02/01 00:44:17;;;;;;;3.53;2.57;;;6.50;79.10;;;;;;5037250;28;20057;-69
2022/02/01 00:46:43;;;;;;;2.92;2.40;;;6.40;79.20;;;;;;5039853;27;20735;-69
2022/02/01 00:49:09;;;;;;;3.15;2.70;;;6.40;79.50;;;;;;5047269;28;20021;-68
2022/02/01 00:51:35;;;;;;;3.20;2.80;;;6.40;79.60;;;;;;5042578;28;20036;-70
2022/02/01 00:54:01;;;;;;;4.18;2.97;;;6.50;79.40;;;;;;5046652;28;20437;-69
2022/02/01 00:56:27;;;;;;;4.68;2.42;;;6.50;79.00;;;;;;5042282;28;20021;-69
2022/02/01 00:58:53;;;;;;;3.10;2.80;;;6.50;78.90;;;;;;5020309;28;20104;-69
2022/02/01 01:01:19;;;;;;;2.50;2.30;;;6.50;79.00;;;;;;5046142;28;20107;-69
2022/02/01 01:03:45;;;;;;;4.72;2.50;;;6.50;78.80;;;;;;5018017;28;20471;-69
2022/02/01 01:06:11;;;;;;;3.35;2.60;;;6.40;79.50;;;;;;5048290;28;20021;-68
2022/02/01 01:08:37;;;;;;;2.92;2.63;;;6.40;80.40;;;;;;5040158;28;20090;-70
2022/02/01 01:11:04;;;;;;;3.13;2.65;;;6.40;80.30;;;;;;5038362;28;20282;-69
2022/02/01 01:16:14;;;;;;;3.53;2.42;;;6.40;79.60;;;;;;5046644;28;20029;-68
2022/02/01 01:38:51;;;;;;;3.05;2.50;;;6.50;79.10;;;;;;5035988;28;20027;-69
2022/02/01 01:43:41;;;;;;;2.70;2.40;;;6.60;78.40;;;;;;5047482;28;20020;-70
2022/02/01 01:54:01;;;;;;;3.78;2.40;;;6.70;78.00;;;;;;5037793;28;20043;-69
2022/02/01 01:56:30;;;;;;;2.92;2.63;;;6.70;77.50;;;;;;5022271;28;20025;-69
2022/02/01 01:58:57;;;;;;;3.67;2.60;;;6.60;78.20;;;;;;5046954;28;20065;-69
2022/02/01 02:01:23;;;;;;;2.35;2.13;;;6.60;77.70;;;;;;5034528;28;20029;-68
2022/02/01 02:03:49;;;;;;;3.28;2.20;;;6.60;77.60;;;;;;5041418;28;20028;-68
2022/02/01 02:06:16;;;;;;;2.75;2.35;;;6.60;77.90;;;;;;5046685;28;20026;-69
2022/02/01 02:08:46;;;;;;;2.63;2.30;;;6.70;78.00;;;;;;5050952;28;20025;-69
2022/02/01 02:11:30;;;;;;;2.50;2.20;;;6.70;77.80;;;;;;5051001;28;20071;-69
2022/02/01 02:16:50;;;;;;;2.75;2.20;;;6.90;77.00;;;;;;5039614;28;20021;-68
2022/02/01 02:19:16;;;;;;;2.70;2.03;;;6.80;76.60;;;;;;5043602;28;20041;-69
2022/02/01 02:21:49;;;;;;;3.00;2.15;;;6.80;76.30;;;;;;5033371;28;20025;-71
2022/02/01 02:24:16;;;;;;;2.75;2.30;;;6.80;76.10;;;;;;5050783;28;20364;-69
2022/02/01 02:26:43;;;;;;;3.20;2.53;;;6.90;75.70;;;;;;5050602;28;20036;-68
2022/02/01 02:29:09;;;;;;;2.70;2.10;;;6.80;75.50;;;;;;5032284;28;20401;-69
2022/02/01 02:31:38;;;;;;;2.80;2.50;;;6.80;75.90;;;;;;5050530;28;20029;-68
2022/02/01 02:34:11;;;;;;;4.18;2.60;;;6.70;76.10;;;;;;5043821;28;20048;-69
2022/02/01 02:36:43;;;;;;;4.07;3.00;;;6.80;76.50;;;;;;5036411;28;20108;-68
2022/02/01 02:40:08;;;;;;;2.95;2.28;;;6.80;76.20;;;;;;5041942;28;20110;-69
2022/02/01 02:42:15;;;;;;;3.08;2.20;;;6.70;76.50;;;;;;5019356;28;20061;-69
2022/02/01 02:47:29;;;;;;;2.95;2.38;;;6.70;76.60;;;;;;5019385;28;20036;-69
2022/02/01 02:49:56;;;;;;;3.13;2.60;;;6.60;77.00;;;;;;5025929;28;20394;-69
2022/02/01 02:52:25;;;;;;;3.75;2.90;;;6.70;77.30;;;;;;5022255;28;20102;-69
2022/02/01 02:54:51;;;;;;;4.32;2.80;;;6.70;77.30;;;;;;5028450;28;20029;-69
2022/02/01 02:57:16;;;;;;;3.80;3.30;;;6.70;77.20;;;;;;5013049;28;20087;-69
2022/02/01 02:59:42;;;;;;;5.18;4.65;;;6.70;77.00;;;;;;5017064;28;20456;-68
2022/02/01 03:02:08;;;;;;;7.90;5.32;;;6.50;77.50;;;;;;5020535;28;20021;-69
2022/02/01 03:04:36;;;;;;;7.00;5.47;;;6.40;76.90;;;;;;5018833;28;20363;-69
2022/02/01 03:07:04;;;;;;;8.32;6.15;;;6.40;77.10;;;;;;5025252;28;20448;-69
2022/02/01 03:09:31;;;;;;;7.40;5.90;;;6.20;77.30;;;;;;5024395;28;20120;-69
2022/02/01 03:11:59;;;;;;;8.70;6.45;;;6.20;77.70;;;;;;5020338;28;20494;-70
2022/02/01 03:14:28;;;;;;;9.07;6.78;;;6.10;78.10;;;;;;5015538;28;20026;-68
2022/02/01 03:22:06;;;;;;;8.85;5.25;;;6.30;77.00;;;;;;5026178;28;20075;-69
2022/02/01 03:24:32;;;;;;;7.40;5.45;;;6.20;76.60;;;;;;5027869;28;20025;-69
2022/02/01 03:26:58;;;;;;;9.07;5.30;;;6.20;76.50;;;;;;5025546;28;20033;-69
2022/02/01 03:29:23;;;;;;;11.13;5.72;;;6.30;76.50;;;;;;5020312;28;20076;-69
2022/02/01 03:31:49;;;;;;;8.30;5.32;;;6.30;76.10;;;;;;5025237;28;20065;-69
2022/02/01 03:34:16;;;;;;;9.77;5.40;;;6.30;75.70;;;;;;5028978;28;20030;-69
2022/02/01 03:36:43;;;;;;;12.25;5.53;;;6.30;75.60;;;;;;5028159;28;20018;-68
2022/02/01 03:39:09;;;;;;;9.82;6.10;;;6.30;75.50;;;;;;5034817;28;20475;-67
2022/02/01 03:41:34;;;;;;;8.05;6.05;;;6.40;75.70;;;;;;5042372;28;20070;-68
2022/02/01 03:44:03;;;;;;;9.73;5.88;;;6.40;75.60;;;;;;5037926;28;20025;-68
2022/02/01 03:46:29;;;;;;;12.02;6.65;;;6.40;75.80;;;;;;5041922;28;20072;-68
2022/02/01 03:48:54;;;;;;;12.48;6.97;;;6.30;75.50;;;;;;5047997;28;20025;-68
2022/02/01 03:51:20;;;;;;;11.50;7.63;;;6.40;75.20;;;;;;5043384;28;20362;-68
2022/02/01 03:53:46;;;;;;;12.77;8.27;;;6.30;75.00;;;;;;5043533;28;20367;-68
2022/02/01 03:56:11;;;;;;;11.85;8.02;;;6.20;75.30;;;;;;5044696;28;20021;-68
2022/02/01 03:58:56;;;;;;;13.20;8.60;;;6.30;75.30;;;;;;5049215;28;20025;-68
2022/02/01 04:01:21;;;;;;;12.27;8.27;;;6.20;75.00;;;;;;5049304;28;20017;-66
2022/02/01 04:03:47;;;;;;;15.77;8.90;;;6.30;75.00;;;;;;5046665;28;20531;-70
2022/02/01 04:06:13;;;;;;;17.90;8.65;;;6.30;75.00;;;;;;5040488;28;20508;-68
2022/02/01 04:08:40;;;;;;;16.00;8.85;;;6.30;74.40;;;;;;5048320;28;20032;-68
2022/02/01 04:11:06;;;;;;;19.02;9.13;;;6.30;74.00;;;;;;5031034;28;20060;-68
2022/02/01 04:13:32;;;;;;;17.55;9.38;;;6.20;74.10;;;;;;5026167;28;20084;-69
2022/02/01 04:15:57;;;;;;;20.50;10.35;;;6.20;74.20;;;;;;5040142;28;20040;-68
2022/02/01 04:18:23;;;;;;;17.45;8.63;;;6.30;74.70;;;;;;5046485;28;20028;-69
2022/02/01 04:20:49;;;;;;;16.05;9.00;;;6.30;74.20;;;;;;5045369;28;20376;-69
2022/02/01 04:23:15;;;;;;;21.17;9.23;;;6.20;74.20;;;;;;5036590;28;20124;-69
2022/02/01 04:25:41;;;;;;;18.58;9.52;;;6.20;74.10;;;;;;5042363;28;20459;-68
2022/02/01 04:28:07;;;;;;;17.15;9.70;;;6.10;74.40;;;;;;5041451;28;20032;-69
2022/02/01 04:30:32;;;;;;;21.00;9.52;;;6.10;74.40;;;;;;5038577;28;20459;-69
2022/02/01 04:32:58;;;;;;;19.65;9.73;;;6.10;74.60;;;;;;5041593;28;20043;-68
2022/02/01 04:35:27;;;;;;;22.25;9.82;;;6.10;74.30;;;;;;5046045;28;20086;-68
2022/02/01 04:37:54;;;;;;;16.70;10.00;;;6.10;74.30;;;;;;5035429;28;20025;-68
2022/02/01 04:40:21;;;;;;;18.50;10.15;;;6.10;74.20;;;;;;5023361;28;20021;-68
2022/02/01 04:42:47;;;;;;;21.35;10.23;;;6.00;74.40;;;;;;5041069;28;20029;-69
2022/02/01 04:45:18;;;;;;;20.38;10.32;;;6.00;74.20;;;;;;5044335;28;20017;-68
2022/02/01 04:47:45;;;;;;;23.10;11.10;;;6.00;74.50;;;;;;5041860;28;20021;-68
2022/02/01 04:50:14;;;;;;;25.92;11.48;;;6.00;74.30;;;;;;5023480;28;20020;-69
2022/02/01 04:52:43;;;;;;;23.73;11.93;;;6.10;75.00;;;;;;5043189;28;20024;-68
2022/02/01 04:55:10;;;;;;;22.90;10.52;;;6.00;73.50;;;;;;5025770;28;20029;-69
2022/02/01 04:57:41;;;;;;;23.75;11.50;;;6.00;74.20;;;;;;5040041;28;20029;-68
2022/02/01 05:00:08;;;;;;;29.17;12.15;;;6.10;73.90;;;;;;5041711;28;20466;-68
2022/02/01 05:02:33;;;;;;;24.17;10.52;;;6.00;73.70;;;;;;5055034;28;20017;-69
2022/02/01 05:04:59;;;;;;;23.73;11.13;;;5.90;73.40;;;;;;5037280;28;20534;-69
2022/02/01 05:07:25;;;;;;;29.10;11.85;;;5.90;73.70;;;;;;5044022;28;20021;-69
2022/02/01 05:09:51;;;;;;;26.38;11.65;;;6.00;73.60;;;;;;5047524;28;20187;-69
2022/02/01 05:12:18;;;;;;;28.80;12.10;;;6.00;73.90;;;;;;5046500;28;20401;-68
2022/02/01 05:14:44;;;;;;;28.45;11.18;;;5.90;73.00;;;;;;5045833;28;20040;-70
2022/02/01 05:17:09;;;;;;;27.67;10.68;;;5.90;72.20;;;;;;5046343;28;20451;-69
2022/02/01 05:22:08;;;;;;;28.95;10.80;;;6.00;71.40;;;;;;5045249;28;20317;-67
2022/02/01 05:24:38;;;;;;;30.77;10.52;;;6.00;70.70;;;;;;5043996;28;20021;-67
2022/02/01 05:27:06;;;;;;;37.03;11.07;;;6.00;71.50;;;;;;5042498;28;20028;-68
2022/02/01 05:29:32;;;;;;;27.98;10.40;;;6.00;70.20;;;;;;5042948;28;20037;-68
2022/02/01 05:32:00;;;;;;;27.58;10.15;;;6.00;69.90;;;;;;5046177;28;20021;-69
2022/02/01 05:34:26;;;;;;;23.58;9.93;;;5.90;69.20;;;;;;5042828;28;20056;-69
2022/02/01 05:36:52;;;;;;;26.40;9.80;;;5.90;69.00;;;;;;5045002;28;20531;-69
2022/02/01 05:39:24;;;;;;;35.33;10.48;;;6.00;69.30;;;;;;5035177;28;20060;-70
2022/02/01 05:41:52;;;;;;;27.58;9.25;;;5.90;68.50;;;;;;5018410;28;20493;-68
2022/02/01 05:44:18;;;;;;;25.50;9.00;;;5.90;68.40;;;;;;5019664;28;20056;-69
2022/02/01 05:46:43;;;;;;;27.55;10.50;;;5.80;68.20;;;;;;5021824;28;20076;-69
2022/02/01 05:49:10;;;;;;;27.10;10.23;;;5.90;68.60;;;;;;5026865;28;20419;-68
2022/02/01 05:51:36;;;;;;;24.42;9.60;;;5.90;68.30;;;;;;5026906;28;20105;-69
2022/02/01 05:54:03;;;;;;;32.45;10.32;;;5.90;68.40;;;;;;5025392;28;20100;-69
2022/02/01 05:56:29;;;;;;;28.75;10.55;;;5.80;68.00;;;;;;5027096;28;20539;-69
2022/02/01 05:58:55;;;;;;;25.10;9.45;;;5.70;68.40;;;;;;5026867;28;20755;-69
2022/02/01 06:01:21;;;;;;;27.55;9.95;;;5.80;68.60;;;;;;5021000;28;20041;-68
2022/02/01 06:03:47;;;;;;;28.60;9.40;;;5.70;68.00;;;;;;5025127;28;20033;-69
2022/02/01 06:06:13;;;;;;;27.50;9.52;;;5.60;68.50;;;;;;5026326;28;20044;-69
2022/02/01 06:08:39;;;;;;;27.10;9.82;;;5.60;68.50;;;;;;5026738;28;20030;-69
2022/02/01 06:11:05;;;;;;;26.77;10.40;;;5.60;68.50;;;;;;5026085;28;20028;-68
2022/02/01 06:13:36;;;;;;;34.10;9.73;;;5.60;68.50;;;;;;5027762;28;20025;-69
2022/02/01 06:16:02;;;;;;;30.75;10.93;;;5.50;68.90;;;;;;5026213;28;20105;-68
2022/02/01 06:18:28;;;;;;;26.27;10.35;;;5.50;69.10;;;;;;5027081;28;20060;-69
2022/02/01 06:20:54;;;;;;;30.42;10.48;;;5.50;69.10;;;;;;5010987;28;20038;-67
2022/02/01 06:23:20;;;;;;;23.67;9.70;;;5.50;69.40;;;;;;5026929;28;20371;-68
2022/02/01 06:25:53;;;;;;;29.80;11.20;;;5.50;69.40;;;;;;5025325;28;20037;-69
2022/02/01 06:31:11;;;;;;;32.50;10.00;;;5.30;69.80;;;;;;5014081;28;20144;-69
2022/02/01 06:33:37;;;;;;;32.70;11.27;;;5.30;70.30;;;;;;5026258;28;20418;-69
2022/02/01 06:36:03;;;;;;;31.17;10.48;;;5.40;70.40;;;;;;5022885;28;20117;-69
2022/02/01 06:38:29;;;;;;;27.05;10.05;;;5.40;70.30;;;;;;5031653;28;20052;-69
2022/02/01 06:40:54;;;;;;;33.95;10.70;;;5.50;70.00;;;;;;5045149;28;20319;-69
2022/02/01 06:43:20;;;;;;;26.05;10.20;;;5.50;69.30;;;;;;5046535;28;20442;-68
2022/02/01 06:45:46;;;;;;;21.73;8.90;;;5.50;69.30;;;;;;5046007;28;20029;-68
2022/02/01 06:48:12;;;;;;;25.35;9.90;;;5.60;69.20;;;;;;5046035;28;20081;-69
2022/02/01 06:50:38;;;;;;;26.80;9.95;;;5.70;69.00;;;;;;5050096;28;20037;-71
2022/02/01 06:53:04;;;;;;;28.77;9.13;;;5.80;68.40;;;;;;5048376;28;20063;-69
2022/02/01 06:58:01;;;;;;;22.92;9.27;;;5.90;67.60;;;;;;5049461;28;20020;-69
2022/02/01 07:00:27;;;;;;;29.75;9.05;;;6.00;67.50;;;;;;5049393;28;20094;-69
2022/02/01 07:02:53;;;;;;;26.73;8.75;;;6.00;67.10;;;;;;5043966;28;20398;-70
2022/02/01 07:05:18;;;;;;;28.55;10.15;;;6.10;66.60;;;;;;5049431;28;20046;-70
2022/02/01 07:07:44;;;;;;;22.77;9.30;;;6.10;66.50;;;;;;5019796;28;20025;-72
2022/02/01 07:10:10;;;;;;;24.20;8.23;;;6.10;66.80;;;;;;5049267;28;20032;-69
2022/02/01 07:12:36;;;;;;;30.08;9.07;;;6.30;66.20;;;;;;5039585;28;20035;-70
2022/02/01 07:15:03;;;;;;;21.90;8.20;;;6.40;65.60;;;;;;5023863;28;20021;-70
2022/02/01 07:17:28;;;;;;;21.77;9.07;;;6.50;64.90;;;;;;5046381;28;20064;-69
2022/02/01 07:19:54;;;;;;;27.63;8.85;;;6.60;64.60;;;;;;5047863;28;20064;-70
2022/02/01 07:22:20;;;;;;;26.00;9.43;;;6.60;63.70;;;;;;5045799;28;20069;-70
2022/02/01 07:24:58;;;;;;;21.00;8.40;;;6.60;63.80;;;;;;5040061;28;20064;-70
2022/02/01 07:27:37;;;;;;;27.73;8.43;;;6.60;63.10;;;;;;5048089;28;20013;-70
2022/02/01 07:30:12;;;;;;;29.42;9.40;;;6.60;63.00;;;;;;5037841;28;20078;-69
2022/02/01 07:32:39;;;;;;;35.90;9.75;;;6.60;63.00;;;;;;5049032;28;20036;-70
2022/02/01 07:35:06;;;;;;;28.00;9.48;;;6.60;62.60;;;;;;5048692;28;20029;-70
2022/02/01 07:37:32;;;;;;;24.38;8.63;;;6.70;62.90;;;;;;5030404;28;20025;-69
2022/02/01 07:39:58;;;;;;;29.83;9.38;;;6.90;62.00;;;;;;5048539;28;20056;-71
2022/02/01 07:42:23;;;;;;;25.77;8.95;;;7.00;61.60;;;;;;5031096;28;20459;-71
2022/02/01 07:44:50;;;;;;;24.27;9.52;;;7.20;61.20;;;;;;5040657;28;20021;-70
2022/02/01 07:47:21;;;;;;;28.98;9.98;;;7.30;60.70;;;;;;5039727;28;20013;-71
2022/02/01 07:49:49;;;;;;;25.85;10.23;;;7.50;60.80;;;;;;5022262;28;20112;-70
2022/02/01 07:52:16;;;;;;;26.48;9.88;;;8.70;60.90;;;;;;5049149;28;20033;-70
2022/02/01 07:54:42;;;;;;;24.77;8.30;;;10.20;57.60;;;;;;5048207;28;20025;-70
2022/02/01 07:57:07;;;;;;;40.83;10.60;;;10.90;53.60;;;;;;5044021;28;20493;-69
2022/02/01 07:59:34;;;;;;;48.00;10.70;;;11.00;52.00;;;;;;5023502;28;20025;-70
2022/02/01 08:02:00;;;;;;;29.23;8.73;;;10.70;50.90;;;;;;5049868;28;20073;-70
2022/02/01 08:04:31;;;;;;;32.60;8.82;;;9.80;51.50;;;;;;5048129;28;20436;-70
2022/02/01 08:06:57;;;;;;;24.40;8.00;;;9.30;51.40;;;;;;5047465;28;20052;-70
2022/02/01 08:09:26;;;;;;;29.40;9.38;;;9.30;52.90;;;;;;5046672;28;20052;-62
2022/02/01 08:11:53;;;;;;;27.77;8.82;;;9.30;52.30;;;;;;5047140;28;20457;-70
2022/02/01 08:17:02;;;;;;;25.10;8.80;;;8.90;54.00;;;;;;5039695;28;20026;-62
2022/02/01 08:19:56;;;;;;;23.45;8.30;;;8.70;54.30;;;;;;5048009;28;20195;-61
2022/02/01 08:24:56;;;;;;;26.48;9.05;;;7.80;56.60;;;;;;5046794;28;20029;-62
2022/02/01 08:27:22;;;;;;;27.52;9.63;;;7.70;56.80;;;;;;5039759;28;20018;-63
2022/02/01 08:29:48;;;;;;;24.25;8.10;;;7.60;56.90;;;;;;5044179;28;20043;-62
2022/02/01 08:32:14;;;;;;;31.17;9.55;;;7.30;57.10;;;;;;5046276;28;20447;-62
2022/02/01 08:34:39;;;;;;;26.52;8.35;;;7.30;57.70;;;;;;5045830;28;20036;-63
2022/02/01 08:37:05;;;;;;;27.60;8.10;;;7.20;57.80;;;;;;5044882;28;20104;-62
2022/02/01 08:39:31;;;;;;;25.02;8.82;;;7.10;58.20;;;;;;5040877;28;20076;-61
2022/02/01 08:41:57;;;;;;;29.27;8.48;;;7.00;58.20;;;;;;5047205;28;20104;-63
2022/02/01 08:44:29;;;;;;;29.00;8.52;;;6.90;58.60;;;;;;5036389;28;20024;-61
2022/02/01 08:46:56;;;;;;;27.15;9.40;;;7.00;59.10;;;;;;5041938;28;20069;-63
2022/02/01 08:49:22;;;;;;;26.85;8.15;;;7.10;58.90;;;;;;5019857;28;20037;-62
2022/02/01 08:51:58;;;;;;;22.67;8.20;;;7.30;58.70;;;;;;5039381;28;20033;-62
2022/02/01 08:54:26;;;;;;;23.27;7.85;;;7.30;57.70;;;;;;5036907;28;20482;-63
2022/02/01 08:59:38;;;;;;;27.80;8.07;;;7.40;56.90;;;;;;5039986;28;20050;-62
2022/02/01 09:02:05;;;;;;;30.38;7.57;;;7.40;56.80;;;;;;5032153;27;20045;-63
2022/02/01 09:04:32;;;;;;;25.65;7.63;;;7.50;56.60;;;;;;5038823;28;20018;-62
2022/02/01 09:06:59;;;;;;;24.65;7.65;;;7.40;56.60;;;;;;5036664;27;20108;-62
2022/02/01 09:09:26;;;;;;;29.63;8.10;;;7.50;56.80;;;;;;5036356;28;20096;-61
2022/02/01 09:11:52;;;;;;;26.45;7.47;;;7.60;56.60;;;;;;5017305;28;20033;-64
2022/02/01 09:14:18;;;;;;;23.20;8.02;;;7.60;56.30;;;;;;5037487;28;20074;-62
2022/02/01 09:16:44;;;;;;;35.88;8.40;;;7.60;56.60;;;;;;5042721;28;20359;-62
2022/02/01 09:19:10;;;;;;;29.63;8.00;;;7.70;56.30;;;;;;5034661;28;20033;-63
2022/02/01 09:21:36;;;;;;;25.70;6.95;;;7.70;56.30;;;;;;5043071;28;20301;-61
2022/02/01 09:24:21;;;;;;;27.50;7.72;;;7.70;56.00;;;;;;5037968;27;20202;-64
2022/02/01 09:26:47;;;;;;;19.45;7.15;;;7.60;56.30;;;;;;5036558;28;20022;-63
2022/02/01 09:29:12;;;;;;;26.52;6.80;;;7.50;56.90;;;;;;5024717;28;20191;-60
2022/02/01 09:31:38;;;;;;;30.13;7.88;;;7.30;56.60;;;;;;5045214;28;20523;-61
2022/02/01 09:34:07;;;;;;;24.38;7.00;;;7.30;57.10;;;;;;5024448;28;20033;-61
2022/02/01 09:36:33;;;;;;;28.13;7.93;;;7.50;57.20;;;;;;5035611;28;20017;-62
2022/02/01 09:38:59;;;;;;;21.30;7.57;;;7.60;57.20;;;;;;5018820;28;20045;-61
2022/02/01 09:41:27;;;;;;;26.33;8.05;;;7.70;57.10;;;;;;5027457;28;20038;-65
2022/02/01 09:43:55;;;;;;;25.48;7.70;;;7.80;56.70;;;;;;5026293;28;20110;-64
2022/02/01 09:46:21;;;;;;;26.48;7.60;;;7.80;56.60;;;;;;5014217;28;20408;-61
2022/02/01 09:49:06;;;;;;;26.88;8.07;;;7.70;56.70;;;;;;5023095;28;20028;-62
2022/02/01 09:51:32;;;;;;;24.75;7.28;;;7.70;56.90;;;;;;5016471;28;20041;-64
2022/02/01 09:53:57;;;;;;;23.60;7.03;;;7.60;56.70;;;;;;5022508;28;20033;-61
2022/02/01 09:56:23;;;;;;;21.92;8.20;;;7.50;57.10;;;;;;5027296;28;20073;-65
2022/02/01 09:58:54;;;;;;;27.63;8.13;;;7.50;57.60;;;;;;5025829;28;20378;-62
2022/02/01 10:01:22;;;;;;;22.08;7.55;;;7.50;57.70;;;;;;5023997;28;20026;-62
2022/02/01 10:04:06;;;;;;;27.65;8.10;;;7.60;57.70;;;;;;5020239;28;20029;-62
2022/02/01 10:06:34;;;;;;;22.10;7.72;;;7.70;57.10;;;;;;5026337;28;20037;-64
2022/02/01 10:09:15;;;;;;;20.67;7.57;;;7.70;57.50;;;;;;5024257;28;20055;-63
2022/02/01 10:11:43;;;;;;;21.83;7.55;;;7.70;56.70;;;;;;5011787;28;20038;-60
2022/02/01 10:14:14;;;;;;;24.60;7.60;;;7.40;57.50;;;;;;5016339;28;20029;-61
2022/02/01 10:16:48;;;;;;;24.60;7.15;;;7.40;57.80;;;;;;5010921;28;20050;-63
2022/02/01 10:19:13;;;;;;;24.55;7.90;;;7.60;57.70;;;;;;5017594;28;20026;-61
2022/02/01 10:21:54;;;;;;;18.15;6.65;;;7.80;57.60;;;;;;5023193;28;20033;-61
2022/02/01 10:24:30;;;;;;;18.83;7.18;;;7.90;56.90;;;;;;5027552;28;20038;-61
2022/02/01 10:27:34;;;;;;;17.67;7.00;;;7.90;56.60;;;;;;5030086;28;20030;-68
2022/02/01 10:30:14;;;;;;;23.13;8.10;;;8.00;56.20;;;;;;5020245;28;20136;-62
2022/02/01 10:33:11;;;;;;;23.05;7.22;;;8.00;56.40;;;;;;5037912;28;20037;-63
2022/02/01 10:35:48;;;;;;;17.52;7.32;;;8.10;56.50;;;;;;5027658;28;20037;-61
2022/02/01 10:38:17;;;;;;;20.48;6.95;;;8.20;55.60;;;;;;5028996;28;20053;-62
2022/02/01 10:40:48;;;;;;;25.15;8.23;;;8.30;55.20;;;;;;5045188;28;20055;-61
2022/02/01 10:43:34;;;;;;;18.13;6.80;;;8.30;55.30;;;;;;5046983;28;20081;-61
2022/02/01 10:46:07;;;;;;;16.83;6.47;;;8.30;55.50;;;;;;5048517;28;20028;-62
2022/02/01 10:48:34;;;;;;;16.42;7.25;;;8.50;54.70;;;;;;5048351;28;20513;-62
2022/02/01 10:51:07;;;;;;;18.35;7.03;;;8.60;54.40;;;;;;5032167;28;20124;-62
2022/02/01 10:53:34;;;;;;;19.42;7.20;;;8.60;54.40;;;;;;5050555;28;20021;-62
2022/02/01 10:56:03;;;;;;;18.00;7.65;;;8.50;54.40;;;;;;5045764;28;20038;-63
2022/02/01 10:58:29;;;;;;;18.33;6.68;;;8.40;54.80;;;;;;5044163;28;20021;-62
2022/02/01 11:00:56;;;;;;;17.67;6.68;;;8.40;55.10;;;;;;5031948;28;20048;-62
2022/02/01 11:03:23;;;;;;;13.43;6.10;;;8.60;54.70;;;;;;5047790;28;20371;-62
2022/02/01 11:05:50;;;;;;;15.88;6.47;;;8.70;53.80;;;;;;5046190;28;20460;-61
2022/02/01 11:08:29;;;;;;;18.38;7.13;;;8.70;53.50;;;;;;5043741;28;20112;-63
2022/02/01 11:11:02;;;;;;;23.13;7.30;;;8.70;54.20;;;;;;5022107;28;20044;-61
2022/02/01 11:13:39;;;;;;;19.77;7.60;;;8.90;54.10;;;;;;5050345;28;20033;-62
2022/02/01 11:16:20;;;;;;;15.93;7.20;;;9.00;53.30;;;;;;5046833;28;20040;-63
2022/02/01 11:19:07;;;;;;;19.05;7.05;;;9.00;53.20;;;;;;5029125;28;20029;-61
2022/02/01 11:21:49;;;;;;;16.58;6.57;;;8.90;52.80;;;;;;5041516;28;20074;-63
2022/02/01 11:24:34;;;;;;;15.40;6.28;;;8.80;53.60;;;;;;5034387;28;20033;-62
2022/02/01 11:27:17;;;;;;;18.23;7.10;;;9.00;53.60;;;;;;5048208;28;20025;-67
2022/02/01 11:32:37;;;;;;;14.38;6.70;;;9.10;52.90;;;;;;5048799;28;20073;-63
2022/02/01 11:35:08;;;;;;;11.23;6.10;;;8.90;53.20;;;;;;5047033;28;20094;-63
2022/02/01 11:37:36;;;;;;;11.63;6.15;;;8.90;53.40;;;;;;5046353;28;20029;-61
2022/02/01 11:40:03;;;;;;;16.42;6.68;;;8.90;53.40;;;;;;5047711;28;20045;-66
2022/02/01 11:42:34;;;;;;;13.20;6.90;;;8.90;53.30;;;;;;5048180;28;20089;-61
2022/02/01 11:45:05;;;;;;;12.85;6.15;;;8.90;53.70;;;;;;5045252;28;20052;-61
2022/02/01 11:47:35;;;;;;;13.45;6.25;;;9.00;53.50;;;;;;5044235;28;20100;-61
2022/02/01 11:50:25;;;;;;;13.57;6.35;;;8.90;54.10;;;;;;5050614;27;20463;-62
2022/02/01 11:52:53;;;;;;;12.70;5.75;;;8.80;53.70;;;;;;5044116;28;20025;-64
2022/02/01 11:55:28;;;;;;;14.32;6.15;;;8.50;54.30;;;;;;5038496;28;20029;-62
2022/02/01 11:57:58;;;;;;;10.95;6.05;;;8.40;55.00;;;;;;5050024;28;20052;-63
2022/02/01 12:00:26;;;;;;;15.27;5.45;;;8.50;55.30;;;;;;5037999;28;20036;-62
2022/02/01 12:02:58;;;;;;;11.40;5.63;;;8.60;54.50;;;;;;5050070;28;20025;-61
2022/02/01 12:05:35;;;;;;;11.48;4.93;;;8.60;54.10;;;;;;5065032;27;20040;-61
2022/02/01 12:08:25;;;;;;;12.13;5.72;;;8.80;53.20;;;;;;5068029;27;20131;-61
2022/02/01 12:10:52;;;;;;;11.98;4.78;;;9.10;53.30;;;;;;5045254;28;20407;-61
2022/02/01 12:13:20;;;;;;;12.30;4.60;;;9.30;53.00;;;;;;5046063;28;20037;-61
2022/02/01 12:15:47;;;;;;;13.13;5.65;;;9.40;52.80;;;;;;5011319;28;20025;-62
2022/02/01 12:18:33;;;;;;;10.00;4.97;;;9.50;53.60;;;;;;5047011;28;20036;-62
2022/02/01 12:21:32;;;;;;;16.75;5.30;;;9.40;53.50;;;;;;5045164;28;20044;-62
2022/02/01 12:24:05;;;;;;;17.55;5.85;;;9.40;54.20;;;;;;5049334;28;20111;-62
2022/02/01 12:26:30;;;;;;;9.40;5.13;;;9.60;53.80;;;;;;5031142;28;20025;-62
2022/02/01 12:28:59;;;;;;;10.80;5.13;;;9.60;53.40;;;;;;5033887;28;20064;-61
2022/02/01 12:31:28;;;;;;;10.18;5.07;;;9.60;53.10;;;;;;5021891;28;20038;-61
2022/02/01 12:33:57;;;;;;;16.88;4.75;;;9.60;53.20;;;;;;5040557;28;20104;-62
2022/02/01 12:36:29;;;;;;;15.48;5.82;;;9.70;52.30;;;;;;5046711;28;20013;-61
2022/02/01 12:39:15;;;;;;;12.25;5.30;;;9.60;52.00;;;;;;5048997;28;20150;-61
2022/02/01 12:47:08;;;;;;;10.27;4.10;;;9.40;52.20;;;;;;5045340;28;19980;-62
2022/02/01 12:49:44;;;;;;;8.98;4.00;;;9.30;52.20;;;;;;5029857;28;20112;-63
2022/02/01 12:52:24;;;;;;;10.30;4.00;;;9.10;52.80;;;;;;5046974;28;20033;-62
2022/02/01 12:55:24;;;;;;;11.23;4.68;;;9.20;53.40;;;;;;5043054;28;20026;-61
2022/02/01 12:57:50;;;;;;;8.40;3.50;;;9.20;53.20;;;;;;5039632;28;20048;-62
2022/02/01 13:00:17;;;;;;;10.82;4.30;;;9.10;53.40;;;;;;5041328;28;20470;-61
2022/02/01 13:02:44;;;;;;;16.10;4.28;;;9.00;53.50;;;;;;5040247;28;20025;-61
2022/02/01 13:05:13;;;;;;;8.63;3.40;;;9.00;53.90;;;;;;5048324;28;20029;-62
2022/02/01 13:21:02;;;;;;;6.05;3.15;;;9.00;55.40;;;;;;5041607;28;20484;-61
2022/02/01 13:23:42;;;;;;;5.88;3.13;;;8.90;55.50;;;;;;5043485;28;20146;-61
2022/02/01 13:26:16;;;;;;;5.80;4.07;;;8.70;56.40;;;;;;5046060;28;20094;-61
2022/02/01 13:28:43;;;;;;;7.28;3.15;;;8.60;56.80;;;;;;5042377;28;20025;-61
2022/02/01 13:31:15;;;;;;;7.32;3.22;;;8.50;56.70;;;;;;5044481;28;20041;-60
2022/02/01 13:33:48;;;;;;;6.05;3.60;;;8.40;57.20;;;;;;5045985;28;20033;-61
2022/02/01 13:36:15;;;;;;;8.00;3.97;;;8.50;58.10;;;;;;5031785;28;20030;-61
2022/02/01 13:38:55;;;;;;;9.52;3.75;;;8.70;57.40;;;;;;5044103;28;20045;-62
2022/02/01 13:41:24;;;;;;;9.82;3.72;;;8.80;56.90;;;;;;5044147;28;20037;-61
2022/02/01 13:44:00;;;;;;;7.30;3.60;;;8.70;57.40;;;;;;5024873;28;20036;-61
2022/02/01 13:46:28;;;;;;;14.10;4.32;;;8.80;57.80;;;;;;5039107;28;20017;-62
2022/02/01 13:49:05;;;;;;;7.28;3.65;;;8.90;57.80;;;;;;5047330;28;20031;-63
2022/02/01 13:51:43;;;;;;;5.03;3.58;;;8.80;57.60;;;;;;5045666;28;20200;-63
2022/02/01 13:54:08;;;;;;;6.68;3.15;;;8.80;57.80;;;;;;5045855;28;20035;-62
2022/02/01 13:56:46;;;;;;;7.25;4.13;;;8.90;57.80;;;;;;5047287;28;20021;-59
2022/02/01 13:59:19;;;;;;;7.65;3.80;;;8.90;58.30;;;;;;5034994;28;20104;-65
2022/02/01 14:01:46;;;;;;;8.63;3.40;;;8.80;58.10;;;;;;5048218;28;20025;-65
2022/02/01 14:04:28;;;;;;;10.93;3.30;;;8.80;58.30;;;;;;5041504;28;20097;-65
2022/02/01 14:07:13;;;;;;;14.18;4.40;;;8.70;58.60;;;;;;5045175;28;20029;-64
2022/02/01 14:36:16;;;;;;;;;;;8.10;60.80;;;;;;5043226;28;20130;-64
2022/02/01 14:39:01;;;;;;;13.50;4.40;;;8.10;60.80;;;;;;5044904;28;19917;-68
2022/02/01 14:47:11;;;;;;;9.73;2.60;;;7.80;60.50;;;;;;5012077;28;20033;-63
2022/02/01 14:49:37;;;;;;;7.15;2.63;;;7.60;60.80;;;;;;5031592;28;20309;-65
2022/02/01 14:52:05;;;;;;;8.23;2.55;;;7.40;60.20;;;;;;5025194;28;20451;-63
2022/02/01 14:54:47;;;;;;;8.25;2.75;;;7.30;60.50;;;;;;5047499;28;20053;-65
2022/02/01 15:13:29;;;;;;;15.27;3.85;;;7.00;58.90;;;;;;5044891;28;20064;-65
2022/02/01 15:15:55;;;;;;;18.70;4.22;;;7.00;59.20;;;;;;5047697;28;20021;-64
2022/02/01 15:18:21;;;;;;;16.05;3.60;;;7.20;59.20;;;;;;5048129;28;20025;-64
2022/02/01 15:20:47;;;;;;;11.30;2.55;;;7.20;58.80;;;;;;5047430;28;20425;-64
2022/02/01 15:23:12;;;;;;;11.65;3.20;;;7.30;58.60;;;;;;5044969;28;20028;-64
2022/02/01 15:25:39;;;;;;;19.27;3.15;;;7.30;58.50;;;;;;5042571;28;20021;-64
2022/02/01 15:28:04;;;;;;;14.60;3.22;;;7.20;58.80;;;;;;5047423;28;20047;-64
2022/02/01 15:30:32;;;;;;;9.85;2.88;;;7.10;59.00;;;;;;5024553;28;20206;-64